Bitter Lake, Washington
Current Conditions -  °F | °C
As of 9:53 AM on Thursday 27 Nov 2014 (Local Time) from KPAE Reporting Station
Broken Clouds Broken Clouds  
Wind Chill: 56°   Ceiling: 2200
Heat Index: 56°   Visibility: 10mi
Dew Point: 50°   Wind: 24mph
Humidity: 80%   Direction: 180°S
Pressure: 29.81"   Gusts: 32mph
Location:  47.7424°N, 122.371°W
Report Text: KPAE 271753Z 18021G28KT 10SM SCT018 BKN022 13/10 A2981 RMK AO2 PK WND 18031/1655 SLP095 60000 T01330100 10133 20111 50004
Loading
Personal Weather Stations






























Interactive Weather Map New forecast layout! Learn more

10-Day Weather Forecast

Advertisements
Track Severe Weather on mobile